Time;durP1;ratioP1;P1;durP2;ratioP2;P2;SDS_P1;SDS_P2;PMS_P1;PMS_P2;Temp;Humidity;BMP_temperature;BMP_pressure;BME280_temperature;BME280_humidity;BME280_pressure;Samples;Min_cycle;Max_cycle;Signal;HPM_P1;HPM_P2
2022/05/18 00:02:24;;;;;;;28.48;16.65;;;22.60;86.40;;;;;;4993454;28;20546;-71
2022/05/18 00:04:50;;;;;;;34.53;17.85;;;22.50;86.50;;;;;;4993390;28;20030;-71
2022/05/18 00:07:16;;;;;;;33.25;18.45;;;22.60;86.70;;;;;;4992490;28;20108;-71
2022/05/18 00:09:41;;;;;;;38.90;17.52;;;22.50;86.70;;;;;;4992728;28;20065;-71
2022/05/18 00:12:10;;;;;;;33.72;17.90;;;22.50;86.90;;;;;;4992701;28;20034;-71
2022/05/18 00:14:37;;;;;;;34.45;18.00;;;22.50;87.10;;;;;;4992990;28;20062;-71
2022/05/18 00:17:04;;;;;;;31.17;18.45;;;22.50;87.10;;;;;;4989919;28;20038;-70
2022/05/18 00:19:33;;;;;;;34.75;18.92;;;22.50;87.30;;;;;;4992345;28;20045;-70
2022/05/18 00:21:59;;;;;;;30.35;17.85;;;22.40;87.50;;;;;;4992918;28;20046;-70
2022/05/18 00:24:25;;;;;;;33.50;19.10;;;22.40;87.40;;;;;;4993173;28;20053;-70
2022/05/18 00:26:51;;;;;;;33.30;18.23;;;22.40;87.50;;;;;;4992484;28;20169;-70
2022/05/18 00:29:19;;;;;;;30.08;17.75;;;22.40;87.60;;;;;;4993311;28;20054;-70
2022/05/18 00:31:48;;;;;;;32.38;18.92;;;22.30;87.60;;;;;;4992189;28;20030;-70
2022/05/18 00:34:16;;;;;;;34.63;19.42;;;22.30;87.70;;;;;;4992213;28;20138;-70
2022/05/18 00:36:44;;;;;;;29.00;16.95;;;22.30;87.80;;;;;;4991994;28;20042;-71
2022/05/18 00:39:10;;;;;;;32.55;18.60;;;22.20;87.60;;;;;;4988810;28;20202;-70
2022/05/18 00:41:37;;;;;;;35.92;20.58;;;22.30;87.60;;;;;;4996390;28;20037;-70
2022/05/18 00:44:04;;;;;;;32.35;18.10;;;22.20;87.80;;;;;;4997282;28;20074;-70
2022/05/18 00:46:30;;;;;;;31.83;18.23;;;22.20;87.80;;;;;;4996736;28;20474;-70
2022/05/18 00:48:58;;;;;;;33.78;19.08;;;22.20;87.80;;;;;;4996378;28;20106;-70
2022/05/18 00:51:29;;;;;;;31.17;17.75;;;22.10;87.70;;;;;;4997017;28;20081;-70
2022/05/18 00:54:09;;;;;;;37.13;20.60;;;22.10;87.70;;;;;;4996927;28;20096;-70
2022/05/18 00:56:46;;;;;;;28.67;18.92;;;22.10;88.10;;;;;;4996355;28;20030;-70
2022/05/18 00:59:23;;;;;;;36.40;19.25;;;22.00;88.20;;;;;;4996994;28;20026;-70
2022/05/18 01:01:50;;;;;;;34.80;20.60;;;22.00;88.30;;;;;;4996220;28;20105;-70
2022/05/18 01:04:16;;;;;;;31.98;20.33;;;22.00;88.50;;;;;;4996838;28;20481;-70
2022/05/18 01:07:08;;;;;;;28.42;20.13;;;22.00;88.60;;;;;;4996311;28;20046;-70
2022/05/18 01:09:38;;;;;;;31.70;17.92;;;21.90;88.70;;;;;;4995931;28;20042;-70
2022/05/18 01:12:07;;;;;;;30.42;17.70;;;21.90;88.60;;;;;;4996560;28;20447;-71
2022/05/18 01:14:39;;;;;;;29.95;19.48;;;21.90;88.70;;;;;;4996410;28;20027;-70
2022/05/18 01:17:08;;;;;;;31.02;19.27;;;21.90;88.70;;;;;;4995856;28;20542;-70
2022/05/18 01:19:45;;;;;;;28.40;19.38;;;21.90;88.60;;;;;;4996257;28;20069;-70
2022/05/18 01:22:11;;;;;;;33.08;19.67;;;21.90;88.80;;;;;;4996161;28;20041;-70
2022/05/18 01:24:55;;;;;;;33.70;17.63;;;21.80;88.70;;;;;;4995273;28;20035;-70
2022/05/18 01:27:20;;;;;;;32.53;19.75;;;21.80;88.90;;;;;;4996473;28;20048;-70
2022/05/18 01:29:46;;;;;;;29.52;19.80;;;21.70;88.90;;;;;;4992643;28;20031;-70
2022/05/18 01:32:14;;;;;;;32.83;20.48;;;21.80;89.00;;;;;;4989011;28;20058;-70
2022/05/18 01:34:42;;;;;;;35.80;19.92;;;21.70;89.10;;;;;;4996139;28;20038;-70
2022/05/18 01:37:11;;;;;;;33.17;19.67;;;21.70;89.00;;;;;;4990859;28;20062;-70
2022/05/18 01:39:46;;;;;;;36.08;20.00;;;21.70;89.00;;;;;;4996133;28;20030;-70
2022/05/18 01:42:17;;;;;;;28.27;17.95;;;21.70;89.00;;;;;;4995757;28;20057;-70
2022/05/18 01:44:43;;;;;;;37.25;20.08;;;21.70;89.10;;;;;;4995343;28;20030;-70
2022/05/18 01:47:09;;;;;;;34.95;19.70;;;21.60;89.00;;;;;;4995689;28;20470;-70
2022/05/18 01:49:37;;;;;;;36.90;19.55;;;21.60;88.80;;;;;;4994845;28;20085;-70
2022/05/18 01:52:03;;;;;;;32.03;18.10;;;21.60;88.90;;;;;;4994933;28;20416;-70
2022/05/18 01:54:28;;;;;;;30.83;18.27;;;21.60;88.90;;;;;;4995870;28;20498;-70
2022/05/18 01:56:54;;;;;;;33.95;19.35;;;21.50;88.70;;;;;;4995791;28;20050;-70
2022/05/18 01:59:20;;;;;;;32.60;19.35;;;21.50;88.80;;;;;;4995098;28;20399;-70
2022/05/18 02:01:46;;;;;;;30.77;16.95;;;21.50;88.90;;;;;;4995501;28;20060;-70
2022/05/18 02:04:13;;;;;;;29.27;18.58;;;21.50;88.80;;;;;;4995617;28;20034;-70
2022/05/18 02:06:39;;;;;;;34.33;19.27;;;21.50;89.00;;;;;;4994506;28;20089;-70
2022/05/18 02:09:05;;;;;;;33.42;19.40;;;21.40;89.00;;;;;;4995759;28;20066;-70
2022/05/18 02:11:33;;;;;;;34.25;20.80;;;21.40;89.10;;;;;;4995396;28;20470;-70
2022/05/18 02:13:59;;;;;;;32.53;19.95;;;21.40;89.10;;;;;;4995214;28;20038;-70
2022/05/18 02:16:25;;;;;;;28.60;18.52;;;21.40;89.20;;;;;;4995431;28;20417;-70
2022/05/18 02:18:51;;;;;;;31.95;18.65;;;21.30;89.10;;;;;;4993237;28;20026;-70
2022/05/18 02:21:17;;;;;;;35.45;18.88;;;21.30;89.10;;;;;;4993895;28;20421;-70
2022/05/18 02:23:43;;;;;;;29.25;19.67;;;21.30;89.20;;;;;;4995162;28;20077;-70
2022/05/18 02:26:13;;;;;;;27.67;18.27;;;21.30;89.30;;;;;;4993479;28;20045;-71
2022/05/18 02:28:43;;;;;;;29.38;18.63;;;21.20;89.30;;;;;;4984868;28;20042;-70
2022/05/18 02:31:09;;;;;;;32.65;18.88;;;21.30;89.30;;;;;;4992590;28;20022;-70
2022/05/18 02:33:35;;;;;;;36.88;19.17;;;21.30;89.20;;;;;;4994086;28;20085;-70
2022/05/18 02:36:02;;;;;;;28.92;17.90;;;21.20;89.20;;;;;;4994585;28;20038;-70
2022/05/18 02:38:28;;;;;;;26.80;17.15;;;21.20;89.10;;;;;;4989882;28;20031;-70
2022/05/18 02:40:58;;;;;;;28.80;18.13;;;21.20;89.10;;;;;;4990049;28;20030;-70
2022/05/18 02:43:24;;;;;;;30.63;16.60;;;21.20;89.70;;;;;;4992841;28;20137;-70
2022/05/18 02:45:59;;;;;;;27.58;17.27;;;21.10;89.00;;;;;;4994544;28;20049;-74
2022/05/18 02:48:24;;;;;;;30.80;17.98;;;21.10;89.00;;;;;;4994330;28;20445;-71
2022/05/18 02:50:50;;;;;;;26.83;17.30;;;21.10;89.20;;;;;;4995111;28;20023;-71
2022/05/18 02:53:16;;;;;;;25.02;17.45;;;21.00;89.00;;;;;;4991837;28;20034;-70
2022/05/18 02:58:26;;;;;;;25.15;16.45;;;21.00;89.10;;;;;;4994423;28;20077;-70
2022/05/18 03:00:52;;;;;;;28.85;18.05;;;21.00;89.10;;;;;;4980792;28;20421;-70
2022/05/18 03:03:17;;;;;;;26.95;16.33;;;20.90;89.10;;;;;;4994580;28;20486;-71
2022/05/18 03:05:43;;;;;;;26.92;16.55;;;20.90;89.20;;;;;;4996682;28;20026;-77
2022/05/18 03:08:09;;;;;;;29.63;17.17;;;20.90;89.20;;;;;;4989821;28;20050;-70
2022/05/18 03:10:36;;;;;;;29.38;17.42;;;20.90;89.20;;;;;;4994345;28;20026;-70
2022/05/18 03:13:01;;;;;;;22.83;14.55;;;20.90;89.20;;;;;;4993333;28;20049;-70
2022/05/18 03:15:27;;;;;;;30.08;15.85;;;20.80;89.10;;;;;;4992674;28;20458;-70
2022/05/18 03:17:56;;;;;;;24.90;15.02;;;20.80;89.10;;;;;;4993265;28;20033;-71
2022/05/18 03:25:53;;;;;;;20.45;13.73;;;20.70;89.00;;;;;;4993002;28;20027;-71
2022/05/18 03:28:18;;;;;;;25.38;13.30;;;20.70;89.00;;;;;;4993920;28;20046;-71
2022/05/18 03:30:44;;;;;;;21.58;13.32;;;20.70;89.00;;;;;;4993236;28;20026;-71
2022/05/18 03:33:10;;;;;;;30.48;14.38;;;20.70;89.10;;;;;;4993817;28;20034;-71
2022/05/18 03:35:36;;;;;;;20.08;13.30;;;20.60;89.00;;;;;;4993897;28;20028;-71
2022/05/18 03:38:05;;;;;;;19.83;12.82;;;20.60;89.00;;;;;;4993114;28;20405;-72
2022/05/18 03:40:38;;;;;;;22.33;14.55;;;20.60;89.10;;;;;;4993983;28;20501;-71
2022/05/18 03:43:04;;;;;;;;;;;20.60;89.10;;;;;;4985492;28;20122;-71
2022/05/18 03:45:33;;;;;;;22.90;13.20;;;20.60;88.90;;;;;;4993437;28;20000;-71
2022/05/18 03:47:59;;;;;;;23.10;12.73;;;20.60;89.00;;;;;;4993525;28;20039;-71
2022/05/18 03:50:28;;;;;;;20.55;12.30;;;20.50;89.10;;;;;;4993135;28;20053;-71
2022/05/18 03:52:54;;;;;;;25.10;12.48;;;20.50;89.10;;;;;;4993649;28;20037;-71
2022/05/18 03:55:20;;;;;;;32.13;12.98;;;20.50;89.10;;;;;;4993821;28;20113;-71
2022/05/18 03:57:49;;;;;;;18.63;11.40;;;20.50;89.20;;;;;;4992796;28;20113;-71
2022/05/18 04:00:15;;;;;;;18.80;11.63;;;20.50;89.30;;;;;;4993728;28;20030;-71
2022/05/18 04:02:47;;;;;;;18.48;11.68;;;20.40;89.30;;;;;;4993264;28;20065;-71
2022/05/18 04:05:16;;;;;;;18.33;12.07;;;20.40;89.30;;;;;;4993033;28;20026;-71
2022/05/18 04:07:41;;;;;;;19.48;10.73;;;20.40;89.30;;;;;;4993234;28;20054;-71
2022/05/18 04:10:08;;;;;;;20.60;10.63;;;20.40;89.40;;;;;;4992125;28;20029;-71
2022/05/18 04:12:34;;;;;;;18.45;10.30;;;20.40;89.30;;;;;;4990991;28;20041;-71
2022/05/18 04:15:01;;;;;;;22.58;12.02;;;20.40;89.50;;;;;;4994055;28;20100;-71
2022/05/18 04:17:27;;;;;;;19.95;9.98;;;20.30;89.50;;;;;;4993614;28;20026;-71
2022/05/18 04:19:53;;;;;;;15.60;9.73;;;20.40;89.60;;;;;;4992903;28;20038;-71
2022/05/18 04:22:19;;;;;;;16.17;9.80;;;20.40;89.60;;;;;;4993116;28;20080;-73
2022/05/18 04:24:45;;;;;;;19.00;9.43;;;20.40;89.60;;;;;;4992924;28;20030;-71
2022/05/18 04:27:14;;;;;;;15.43;10.23;;;20.30;89.60;;;;;;4992546;28;20038;-71
2022/05/18 04:29:39;;;;;;;20.45;9.60;;;20.30;89.70;;;;;;4993137;28;20355;-71
2022/05/18 04:32:06;;;;;;;14.20;9.38;;;20.30;89.70;;;;;;4993214;28;20080;-71
2022/05/18 04:34:32;;;;;;;15.75;8.95;;;20.30;89.70;;;;;;4991996;28;20050;-71
2022/05/18 04:36:58;;;;;;;13.60;7.57;;;20.30;89.70;;;;;;4993287;28;20034;-71
2022/05/18 04:39:24;;;;;;;15.68;7.15;;;20.30;90.00;;;;;;4992293;28;20034;-72
2022/05/18 04:41:50;;;;;;;15.27;8.10;;;20.30;90.00;;;;;;4993820;28;20026;-71
2022/05/18 04:44:15;;;;;;;14.57;8.18;;;20.20;89.90;;;;;;4992174;28;20033;-71
2022/05/18 04:46:41;;;;;;;13.57;7.10;;;20.20;89.90;;;;;;4991373;28;20397;-70
2022/05/18 04:49:12;;;;;;;12.15;6.97;;;20.30;90.00;;;;;;4993137;28;20566;-73
2022/05/18 04:51:38;;;;;;;13.15;7.28;;;20.30;90.00;;;;;;4991252;28;20042;-75
2022/05/18 04:54:04;;;;;;;14.95;7.97;;;20.30;90.00;;;;;;4991179;28;20027;-73
2022/05/18 04:56:33;;;;;;;19.50;7.97;;;20.30;89.90;;;;;;4993047;28;20100;-75
2022/05/18 04:58:58;;;;;;;14.73;7.50;;;20.30;89.90;;;;;;4993054;28;20032;-77
2022/05/18 05:01:25;;;;;;;13.38;6.75;;;20.30;89.90;;;;;;4991652;28;20504;-73
2022/05/18 05:03:51;;;;;;;11.80;7.43;;;20.40;89.90;;;;;;4992187;28;20031;-73
2022/05/18 05:06:17;;;;;;;13.85;6.95;;;20.40;89.90;;;;;;4987877;28;20441;-71
2022/05/18 05:08:42;;;;;;;15.30;7.47;;;20.40;90.00;;;;;;4986640;28;20042;-72
2022/05/18 05:11:08;;;;;;;13.20;6.20;;;20.40;90.00;;;;;;4988756;28;20099;-72
2022/05/18 05:13:35;;;;;;;17.10;7.07;;;20.40;90.10;;;;;;4988222;28;20041;-71
2022/05/18 05:16:06;;;;;;;11.88;5.90;;;20.40;90.10;;;;;;4987702;28;20030;-72
2022/05/18 05:18:32;;;;;;;18.30;7.50;;;20.50;90.00;;;;;;4988387;28;20394;-71
2022/05/18 05:20:58;;;;;;;16.90;7.18;;;20.50;90.00;;;;;;4989039;28;20037;-71
2022/05/18 05:23:25;;;;;;;13.60;6.05;;;20.50;90.00;;;;;;4988604;28;20038;-73
2022/05/18 05:25:51;;;;;;;11.85;5.68;;;20.50;90.00;;;;;;4992971;28;20545;-74
2022/05/18 05:28:17;;;;;;;9.70;5.32;;;20.50;90.00;;;;;;4991244;28;20042;-73
2022/05/18 05:30:43;;;;;;;11.40;5.80;;;20.50;90.00;;;;;;4994662;28;20121;-73
2022/05/18 05:33:09;;;;;;;11.15;6.40;;;20.60;90.00;;;;;;4996421;28;20382;-74
2022/05/18 05:35:34;;;;;;;15.25;5.80;;;20.60;90.00;;;;;;4995691;28;20064;-74
2022/05/18 05:38:00;;;;;;;12.32;5.63;;;20.60;90.00;;;;;;4996377;28;20126;-71
2022/05/18 05:40:26;;;;;;;14.85;5.78;;;20.60;90.10;;;;;;4995088;28;20034;-72
2022/05/18 05:42:51;;;;;;;13.27;6.35;;;20.60;90.10;;;;;;4991683;28;20026;-76
2022/05/18 05:45:17;;;;;;;10.13;5.80;;;20.60;90.10;;;;;;4992151;28;20014;-72
2022/05/18 05:47:43;;;;;;;10.85;6.40;;;20.60;90.10;;;;;;4994856;28;20060;-72
2022/05/18 05:50:09;;;;;;;11.35;6.88;;;20.60;90.10;;;;;;4994904;28;20026;-72
2022/05/18 05:52:35;;;;;;;18.85;6.40;;;20.60;90.30;;;;;;4995704;28;20034;-71
2022/05/18 05:55:00;;;;;;;12.88;5.85;;;20.60;90.40;;;;;;4996408;28;20117;-72
2022/05/18 05:57:27;;;;;;;11.30;6.43;;;20.60;90.30;;;;;;4995324;28;20393;-71
2022/05/18 05:59:53;;;;;;;12.20;6.93;;;20.60;90.40;;;;;;4996440;28;20037;-72
2022/05/18 06:02:19;;;;;;;14.57;6.22;;;20.70;90.50;;;;;;4996270;28;20022;-72
2022/05/18 06:04:46;;;;;;;18.40;7.43;;;20.70;90.50;;;;;;4995463;28;20030;-72
2022/05/18 06:07:12;;;;;;;12.95;6.05;;;20.70;90.40;;;;;;4995531;28;20121;-71
2022/05/18 06:09:38;;;;;;;14.00;6.80;;;20.80;90.50;;;;;;4995436;28;20029;-72
2022/05/18 06:12:04;;;;;;;11.15;6.57;;;20.80;90.40;;;;;;4994981;28;20126;-72
2022/05/18 06:14:30;;;;;;;11.60;7.00;;;20.80;90.50;;;;;;4995263;28;20496;-72
2022/05/18 06:16:56;;;;;;;11.95;7.28;;;20.80;90.60;;;;;;4992334;28;20121;-72
2022/05/18 06:19:22;;;;;;;17.23;7.28;;;20.80;90.50;;;;;;4994765;28;20505;-71
2022/05/18 06:21:49;;;;;;;13.90;6.20;;;20.90;90.50;;;;;;4994921;28;20130;-71
2022/05/18 06:24:19;;;;;;;17.25;7.88;;;20.90;90.50;;;;;;4995068;28;20482;-71
2022/05/18 06:26:45;;;;;;;10.20;6.82;;;20.90;90.20;;;;;;4994460;28;20034;-71
2022/05/18 06:29:11;;;;;;;11.40;7.10;;;20.90;89.50;;;;;;4995255;28;20069;-71
2022/05/18 06:31:37;;;;;;;16.13;7.13;;;21.00;89.30;;;;;;4995255;28;20078;-71
2022/05/18 06:34:04;;;;;;;10.57;6.55;;;21.00;89.20;;;;;;4993785;28;20034;-71
2022/05/18 06:36:30;;;;;;;19.20;6.85;;;21.00;89.30;;;;;;4993890;28;20478;-69
2022/05/18 06:38:58;;;;;;;14.65;7.35;;;21.00;89.20;;;;;;4993313;28;20027;-69
2022/05/18 06:41:24;;;;;;;9.38;4.68;;;21.10;89.50;;;;;;4994624;28;20041;-74
2022/05/18 06:44:02;;;;;;;13.45;7.53;;;21.10;89.10;;;;;;4992175;28;20472;-70
2022/05/18 06:46:29;;;;;;;17.20;7.40;;;21.20;89.00;;;;;;4994361;28;20551;-70
2022/05/18 06:48:56;;;;;;;11.70;6.45;;;21.20;89.10;;;;;;4994643;28;20038;-70
2022/05/18 06:51:24;;;;;;;11.52;5.85;;;21.10;88.70;;;;;;4992200;28;20030;-70
2022/05/18 06:53:51;;;;;;;9.85;5.93;;;21.20;88.20;;;;;;4992285;28;20486;-70
2022/05/18 06:56:22;;;;;;;8.98;4.28;;;21.20;87.10;;;;;;4993276;28;20033;-72
2022/05/18 06:58:49;;;;;;;10.00;6.15;;;21.20;86.00;;;;;;5005329;28;20029;-72
2022/05/18 07:01:18;;;;;;;17.20;6.68;;;21.20;86.30;;;;;;4992937;28;20062;-72
2022/05/18 07:03:47;;;;;;;11.45;7.10;;;21.10;86.60;;;;;;4994687;28;20030;-72
2022/05/18 07:06:16;;;;;;;11.13;7.40;;;21.10;86.60;;;;;;4994119;28;20042;-71
2022/05/18 07:08:41;;;;;;;7.85;4.70;;;21.10;87.60;;;;;;4993582;28;20383;-72
2022/05/18 07:11:07;;;;;;;12.73;6.63;;;21.20;86.80;;;;;;4992945;28;20033;-72
2022/05/18 07:13:34;;;;;;;15.55;8.88;;;21.20;87.00;;;;;;4993647;28;20084;-72
2022/05/18 07:16:01;;;;;;;13.93;7.50;;;21.20;87.70;;;;;;4993103;28;20161;-72
2022/05/18 07:18:34;;;;;;;14.15;8.38;;;21.20;88.40;;;;;;4993450;28;20085;-72
2022/05/18 07:21:03;;;;;;;15.75;7.10;;;21.30;89.20;;;;;;4993481;28;20039;-72
2022/05/18 07:23:29;;;;;;;19.83;7.55;;;21.40;89.00;;;;;;4992810;28;20510;-72
2022/05/18 07:25:56;;;;;;;14.63;8.23;;;21.40;89.10;;;;;;4993783;28;20042;-72
2022/05/18 07:28:23;;;;;;;12.05;6.68;;;21.50;89.10;;;;;;4993588;28;20043;-72
2022/05/18 07:30:50;;;;;;;13.13;7.30;;;21.60;88.60;;;;;;4994106;28;20045;-72
2022/05/18 07:33:16;;;;;;;13.45;6.72;;;21.60;87.90;;;;;;4993924;28;20038;-72
2022/05/18 07:35:42;;;;;;;12.73;8.65;;;21.60;87.50;;;;;;4993553;28;20442;-72
2022/05/18 07:38:08;;;;;;;20.67;8.48;;;21.60;87.40;;;;;;4994039;28;20030;-72
2022/05/18 07:40:34;;;;;;;21.23;7.95;;;21.60;88.20;;;;;;4994037;28;20390;-72
2022/05/18 07:43:01;;;;;;;17.80;8.82;;;21.70;87.70;;;;;;4985027;28;20035;-72
2022/05/18 07:45:28;;;;;;;12.70;7.47;;;21.70;88.00;;;;;;4993863;28;20042;-72
2022/05/18 07:47:54;;;;;;;17.88;8.10;;;21.70;88.00;;;;;;4993497;28;20042;-72
2022/05/18 07:50:21;;;;;;;22.23;7.75;;;21.80;88.20;;;;;;4993402;28;20019;-72
2022/05/18 07:52:47;;;;;;;15.40;7.90;;;21.90;87.80;;;;;;4993619;28;20498;-72
2022/05/18 07:55:13;;;;;;;19.08;7.40;;;21.90;87.30;;;;;;4993839;28;20034;-72
2022/05/18 07:57:39;;;;;;;12.77;8.65;;;21.90;86.50;;;;;;4992936;28;20030;-72
2022/05/18 08:00:07;;;;;;;13.65;6.95;;;21.90;87.10;;;;;;4993298;28;20031;-72
2022/05/18 08:02:40;;;;;;;17.52;9.70;;;21.90;86.80;;;;;;4993467;28;20042;-72
2022/05/18 08:05:06;;;;;;;13.15;8.15;;;21.90;87.20;;;;;;4993026;28;20042;-72
2022/05/18 08:07:32;;;;;;;19.58;8.45;;;22.00;87.30;;;;;;4993470;28;20046;-72
2022/05/18 08:15:27;;;;;;;15.68;7.32;;;22.10;87.00;;;;;;4993404;28;20030;-72
2022/05/18 08:17:53;;;;;;;14.10;8.85;;;22.10;86.60;;;;;;4992712;28;20045;-72
2022/05/18 08:20:21;;;;;;;13.35;8.07;;;22.20;87.80;;;;;;4993302;28;20030;-72
2022/05/18 08:22:47;;;;;;;15.32;6.97;;;22.20;86.90;;;;;;4993285;28;20034;-72
2022/05/18 08:25:13;;;;;;;12.82;7.45;;;22.20;86.30;;;;;;4992414;28;20030;-72
2022/05/18 08:27:42;;;;;;;16.42;7.38;;;22.20;86.20;;;;;;4987246;28;20054;-72
2022/05/18 08:30:13;;;;;;;17.00;7.63;;;22.20;86.70;;;;;;4993127;28;20031;-73
2022/05/18 08:32:39;;;;;;;13.52;6.75;;;22.30;87.00;;;;;;4992555;28;20042;-72
2022/05/18 08:35:07;;;;;;;15.02;5.65;;;22.20;86.70;;;;;;4992959;28;20022;-73
2022/05/18 08:37:44;;;;;;;8.77;4.75;;;22.30;86.20;;;;;;4993238;28;20077;-73
2022/05/18 08:40:22;;;;;;;7.35;3.85;;;22.30;85.90;;;;;;4992619;28;20035;-72
2022/05/18 08:42:48;;;;;;;10.13;4.55;;;22.30;86.30;;;;;;4986745;28;20114;-72
2022/05/18 08:45:14;;;;;;;13.93;3.88;;;22.40;85.20;;;;;;4992511;28;20117;-72
2022/05/18 08:47:46;;;;;;;11.88;4.13;;;22.30;85.00;;;;;;4991240;28;20030;-72
2022/05/18 08:50:19;;;;;;;8.25;4.10;;;22.30;84.80;;;;;;4992295;28;20028;-75
2022/05/18 08:53:22;;;;;;;9.45;4.35;;;22.40;84.20;;;;;;4992530;28;20050;-73
2022/05/18 08:55:59;;;;;;;11.77;4.97;;;22.50;84.20;;;;;;4972676;28;20093;-74
2022/05/18 08:58:43;;;;;;;11.25;5.15;;;22.50;84.00;;;;;;4993714;28;20041;-74
2022/05/18 09:01:21;;;;;;;7.82;4.60;;;22.50;84.00;;;;;;4994923;28;20041;-74
2022/05/18 09:04:10;;;;;;;11.93;5.60;;;22.50;84.10;;;;;;4994241;28;20041;-74
2022/05/18 09:06:59;;;;;;;11.15;5.28;;;22.60;83.60;;;;;;4995790;28;20058;-78
2022/05/18 09:12:27;;;;;;;8.80;4.45;;;22.70;83.70;;;;;;4997200;28;20074;-80
2022/05/18 09:14:53;;;;;;;10.20;4.55;;;22.80;83.50;;;;;;4996034;28;20068;-79
2022/05/18 09:17:20;;;;;;;11.70;4.38;;;22.80;83.80;;;;;;4995382;28;20382;-80
2022/05/18 09:19:55;;;;;;;11.52;3.05;;;22.90;82.90;;;;;;4996711;28;20041;-79
2022/05/18 09:22:32;;;;;;;6.30;2.30;;;22.90;82.50;;;;;;4995770;28;20474;-80
2022/05/18 09:25:33;;;;;;;6.80;2.60;;;23.00;82.60;;;;;;4996497;28;20073;-81
2022/05/18 09:28:05;;;;;;;8.52;3.40;;;23.00;81.60;;;;;;4934923;29;20095;-80
2022/05/18 09:30:48;;;;;;;6.65;2.67;;;23.00;82.30;;;;;;4986349;28;20066;-80
2022/05/18 09:33:20;;;;;;;5.35;2.47;;;23.00;81.60;;;;;;4995164;28;20126;-80
2022/05/18 09:36:07;;;;;;;9.32;2.70;;;23.20;81.50;;;;;;4994626;28;20042;-80
2022/05/18 09:38:42;;;;;;;8.52;3.00;;;23.20;81.00;;;;;;4995310;28;20026;-78
2022/05/18 09:41:16;;;;;;;7.78;2.33;;;23.20;79.80;;;;;;4984913;28;20437;-83
2022/05/18 09:43:58;;;;;;;7.63;3.00;;;23.30;80.70;;;;;;4992172;28;20449;-79
2022/05/18 09:46:26;;;;;;;7.68;2.85;;;23.40;79.50;;;;;;4994815;28;20134;-81
2022/05/18 09:48:57;;;;;;;10.55;4.03;;;23.40;80.40;;;;;;4993911;28;20500;-80
2022/05/18 09:51:24;;;;;;;5.70;1.58;;;23.40;78.70;;;;;;4995161;28;20101;-78
2022/05/18 09:53:51;;;;;;;7.28;3.10;;;23.50;80.40;;;;;;4995156;28;20030;-81
2022/05/18 09:56:26;;;;;;;10.43;2.95;;;23.50;80.20;;;;;;4994426;28;20046;-80
2022/05/18 09:58:56;;;;;;;2.92;2.00;;;23.50;79.50;;;;;;4993263;28;20026;-80
2022/05/18 10:07:32;;;;;;;6.05;2.08;;;23.60;79.20;;;;;;4994318;28;20054;-81
2022/05/18 10:10:30;;;;;;;5.38;2.25;;;23.60;78.90;;;;;;4992559;28;20045;-85
2022/05/18 10:12:58;;;;;;;8.98;3.13;;;23.60;79.50;;;;;;4991777;28;20041;-73
2022/05/18 10:15:45;;;;;;;3.85;2.28;;;23.70;79.00;;;;;;4994801;28;20076;-73
2022/05/18 10:18:34;;;;;;;10.60;3.03;;;23.70;79.10;;;;;;4982443;28;20065;-73
2022/05/18 10:21:05;;;;;;;8.20;3.03;;;23.80;78.50;;;;;;4994848;28;20042;-73
2022/05/18 10:23:57;;;;;;;7.80;2.45;;;23.90;79.60;;;;;;4994676;28;20478;-73
2022/05/18 10:26:41;;;;;;;4.47;2.10;;;23.90;79.80;;;;;;4990729;28;20098;-73
2022/05/18 10:29:13;;;;;;;12.38;3.85;;;23.90;79.90;;;;;;4983303;28;20045;-73
2022/05/18 10:32:04;;;;;;;13.68;4.38;;;24.00;79.50;;;;;;4993844;28;20142;-73
2022/05/18 10:34:33;;;;;;;3.55;2.28;;;24.10;78.60;;;;;;4991077;28;20030;-72
2022/05/18 10:37:02;;;;;;;6.05;2.78;;;24.20;78.90;;;;;;4994223;28;20022;-72
2022/05/18 10:39:38;;;;;;;6.50;3.28;;;24.30;79.50;;;;;;4993210;28;20418;-74
2022/05/18 10:42:31;;;;;;;12.95;4.28;;;24.40;78.50;;;;;;4993764;28;20031;-74
2022/05/18 10:45:00;;;;;;;8.48;3.78;;;24.50;77.60;;;;;;4993582;28;20026;-82
2022/05/18 10:47:26;;;;;;;8.93;3.22;;;24.40;78.10;;;;;;4994458;28;20089;-78
2022/05/18 10:50:13;;;;;;;10.13;3.67;;;24.60;78.40;;;;;;4994190;28;20125;-75
2022/05/18 10:52:39;;;;;;;6.82;3.42;;;24.70;78.00;;;;;;4979648;28;20038;-73
2022/05/18 10:55:14;;;;;;;9.32;3.72;;;24.70;78.10;;;;;;4994751;28;20494;-73
2022/05/18 10:57:46;;;;;;;8.45;3.22;;;24.70;77.50;;;;;;4994676;28;20040;-73
2022/05/18 11:00:20;;;;;;;13.25;4.60;;;24.80;77.40;;;;;;4994030;28;20045;-74
2022/05/18 11:02:57;;;;;;;10.52;4.78;;;24.90;78.10;;;;;;4994706;28;20134;-73
2022/05/18 11:05:51;;;;;;;12.85;4.13;;;25.00;78.10;;;;;;4994571;28;20107;-73
2022/05/18 11:08:21;;;;;;;12.63;5.50;;;25.10;78.40;;;;;;4993174;28;20050;-73
2022/05/18 11:10:53;;;;;;;11.73;5.22;;;25.10;78.10;;;;;;4995520;28;20027;-74
2022/05/18 11:13:36;;;;;;;9.05;4.68;;;25.30;77.50;;;;;;4994469;28;20477;-73
2022/05/18 11:16:20;;;;;;;16.13;6.78;;;25.30;77.90;;;;;;4993248;28;20044;-71
2022/05/18 11:18:58;;;;;;;15.18;8.18;;;25.40;78.00;;;;;;4992876;28;20104;-72
2022/05/18 11:21:53;;;;;;;14.90;7.88;;;25.50;77.80;;;;;;4992154;28;20049;-71
2022/05/18 11:24:45;;;;;;;17.33;7.85;;;25.60;77.10;;;;;;4992994;28;20042;-72
2022/05/18 11:27:51;;;;;;;15.85;8.10;;;25.70;76.30;;;;;;4990491;28;20030;-77
2022/05/18 11:30:38;;;;;;;14.68;7.85;;;25.80;76.00;;;;;;4992415;28;20039;-76
2022/05/18 11:33:21;;;;;;;16.98;7.53;;;26.00;75.90;;;;;;4993745;28;20038;-71
2022/05/18 11:35:53;;;;;;;;;;;26.10;75.90;;;;;;4981151;28;20026;-71
2022/05/18 11:38:39;;;;;;;14.77;6.75;;;26.20;76.90;;;;;;4993740;28;20332;-71
2022/05/18 11:41:23;;;;;;;12.55;8.32;;;26.30;76.90;;;;;;4993952;28;20050;-71
2022/05/18 11:44:09;;;;;;;17.27;8.32;;;26.40;76.60;;;;;;4984454;28;20035;-73
2022/05/18 11:47:07;;;;;;;18.77;8.65;;;26.40;76.20;;;;;;4993207;28;20046;-73
2022/05/18 11:50:01;;;;;;;16.52;9.02;;;26.60;76.70;;;;;;4993099;28;20041;-74
2022/05/18 11:52:33;;;;;;;12.73;8.20;;;26.60;76.90;;;;;;4992399;28;20030;-73
2022/05/18 11:55:09;;;;;;;18.95;9.73;;;26.70;77.00;;;;;;4991922;28;20061;-73
2022/05/18 11:57:50;;;;;;;20.55;9.32;;;26.70;77.00;;;;;;4990497;28;20034;-70
2022/05/18 12:00:49;;;;;;;18.08;9.15;;;26.80;77.20;;;;;;4987006;28;20037;-71
2022/05/18 12:04:01;;;;;;;16.67;9.52;;;26.80;77.20;;;;;;4988890;28;20026;-70
2022/05/18 12:06:40;;;;;;;25.90;11.82;;;26.90;77.20;;;;;;4974432;28;20100;-71
2022/05/18 12:09:09;;;;;;;18.98;11.73;;;27.00;76.90;;;;;;4989932;28;20490;-70
2022/05/18 12:11:56;;;;;;;22.55;11.25;;;27.00;76.60;;;;;;4990144;28;20039;-70
2022/05/18 12:14:36;;;;;;;21.08;11.68;;;27.10;77.00;;;;;;4988528;28;20026;-71
2022/05/18 12:17:11;;;;;;;20.17;11.38;;;27.10;76.70;;;;;;4989920;28;20037;-70
2022/05/18 12:20:10;;;;;;;23.77;10.93;;;27.20;76.90;;;;;;4989788;28;20081;-70
2022/05/18 12:22:42;;;;;;;23.30;12.32;;;27.20;77.10;;;;;;4989311;28;20037;-71
2022/05/18 12:25:10;;;;;;;28.75;14.73;;;27.30;77.10;;;;;;4989847;28;20035;-71
2022/05/18 12:27:37;;;;;;;22.75;13.10;;;27.40;76.20;;;;;;4989663;28;20077;-71
2022/05/18 12:30:07;;;;;;;24.35;13.40;;;27.40;76.70;;;;;;4990021;28;20041;-71
2022/05/18 12:32:35;;;;;;;23.67;12.02;;;27.50;76.50;;;;;;4987683;28;20026;-70
2022/05/18 12:35:14;;;;;;;23.35;14.13;;;27.50;77.10;;;;;;4989691;28;20030;-71
2022/05/18 12:38:02;;;;;;;22.60;13.20;;;27.60;76.60;;;;;;4988360;28;20034;-70
2022/05/18 12:40:44;;;;;;;21.15;13.63;;;27.60;77.00;;;;;;4989791;28;20541;-70
2022/05/18 12:43:33;;;;;;;23.60;13.10;;;27.70;77.00;;;;;;4988875;28;20360;-71
2022/05/18 12:46:04;;;;;;;30.83;14.02;;;27.70;76.90;;;;;;4989376;28;20121;-70
2022/05/18 12:48:49;;;;;;;24.42;13.32;;;27.80;76.50;;;;;;4988636;28;20038;-71
2022/05/18 12:51:22;;;;;;;26.10;14.50;;;27.80;76.50;;;;;;4989196;28;20035;-71
2022/05/18 12:53:51;;;;;;;25.17;15.35;;;27.80;76.10;;;;;;4987711;28;20037;-71
2022/05/18 12:56:44;;;;;;;27.42;15.70;;;27.80;76.10;;;;;;4989157;28;20108;-71
2022/05/18 12:59:11;;;;;;;;;;;27.90;76.40;;;;;;4988020;28;20038;-70
2022/05/18 13:01:46;;;;;;;27.10;16.33;;;27.80;77.70;;;;;;4990209;28;19917;-71
2022/05/18 13:04:14;;;;;;;28.50;16.50;;;27.80;77.00;;;;;;4991524;28;20077;-71
2022/05/18 13:06:55;;;;;;;30.45;18.50;;;27.70;77.00;;;;;;4990537;28;20100;-69
2022/05/18 13:09:36;;;;;;;28.92;16.55;;;27.80;77.70;;;;;;4989987;28;20088;-71
2022/05/18 13:12:30;;;;;;;30.13;14.27;;;27.70;77.70;;;;;;4990693;28;20183;-72
2022/05/18 13:15:19;;;;;;;29.15;13.50;;;27.70;78.50;;;;;;4989727;28;20023;-72
2022/05/18 13:17:52;;;;;;;31.25;15.60;;;27.70;78.50;;;;;;4987695;28;20060;-71
2022/05/18 13:20:29;;;;;;;29.63;14.85;;;27.70;78.10;;;;;;4990566;28;20026;-72